Time;durP1;ratioP1;P1;durP2;ratioP2;P2;SDS_P1;SDS_P2;PMS_P1;PMS_P2;Temp;Humidity;BMP_temperature;BMP_pressure;BME280_temperature;BME280_humidity;BME280_pressure;Samples;Min_cycle;Max_cycle;Signal;HPM_P1;HPM_P2
2021/04/04 00:01:26;;;;;;;14.07;8.17;;;;;;;-2.64;100.00;101600.91;5009655;28;20440;-69
2021/04/04 00:03:52;;;;;;;13.07;8.93;;;;;;;-2.80;99.82;101614.69;5009566;28;20924;-73
2021/04/04 00:06:18;;;;;;;12.57;8.00;;;;;;;-2.75;100.00;101608.13;5009645;28;20437;-70
2021/04/04 00:08:44;;;;;;;15.40;8.23;;;;;;;-2.99;98.56;101608.78;5008731;28;20471;-70
2021/04/04 00:11:10;;;;;;;13.47;8.20;;;;;;;-2.67;100.00;101604.22;5014756;28;20537;-71
2021/04/04 00:13:38;;;;;;;15.27;7.90;;;;;;;-2.51;100.00;101605.75;5011378;28;20439;-70
2021/04/04 00:16:04;;;;;;;12.57;8.30;;;;;;;-2.73;100.00;101607.34;5029236;28;20471;-70
2021/04/04 00:18:32;;;;;;;14.43;8.60;;;;;;;-2.91;100.00;101606.56;5025257;28;20476;-71
2021/04/04 00:20:58;;;;;;;12.27;8.30;;;;;;;-2.76;100.00;101611.47;5015646;28;20950;-73
2021/04/04 00:23:25;;;;;;;12.43;7.93;;;;;;;-2.48;100.00;101605.88;5013268;28;20939;-73
2021/04/04 00:25:51;;;;;;;14.07;7.87;;;;;;;-2.51;100.00;101601.50;5018844;28;20970;-74
2021/04/04 00:28:17;;;;;;;15.90;7.90;;;;;;;-2.41;100.00;101609.56;5010393;28;20966;-74
2021/04/04 00:30:43;;;;;;;13.60;7.80;;;;;;;-2.59;100.00;101612.22;5011249;28;20480;-73
2021/04/04 00:33:09;;;;;;;11.93;7.67;;;;;;;-2.80;100.00;101609.59;5016769;28;20517;-74
2021/04/04 00:35:36;;;;;;;12.33;7.57;;;;;;;-2.87;100.00;101605.88;4995559;28;20809;-72
2021/04/04 00:38:04;;;;;;;12.23;7.63;;;;;;;-2.95;100.00;101608.09;5015671;28;20467;-71
2021/04/04 00:40:33;;;;;;;16.20;8.33;;;;;;;-2.98;100.00;101613.06;5015466;28;20453;-73
2021/04/04 00:43:00;;;;;;;12.87;8.53;;;;;;;-3.03;100.00;101609.44;5014410;28;20741;-74
2021/04/04 00:45:28;;;;;;;16.13;7.93;;;;;;;-2.86;100.00;101600.84;5013734;28;20464;-71
2021/04/04 00:47:55;;;;;;;15.77;9.20;;;;;;;-2.94;100.00;101607.28;5013808;28;20483;-70
2021/04/04 00:50:24;;;;;;;15.63;9.57;;;;;;;-3.15;100.00;101622.53;5015954;28;20843;-73
2021/04/04 00:52:51;;;;;;;14.43;8.47;;;;;;;-3.37;100.00;101617.25;5008810;28;20450;-73
2021/04/04 00:55:17;;;;;;;13.00;7.10;;;;;;;-2.90;100.00;101621.09;5014680;28;21011;-73
2021/04/04 00:57:44;;;;;;;10.03;7.00;;;;;;;-2.87;100.00;101613.53;5010887;28;20830;-74
2021/04/04 01:00:13;;;;;;;11.77;7.50;;;;;;;-3.12;100.00;101620.09;4994296;28;20470;-73
2021/04/04 01:02:41;;;;;;;12.07;7.37;;;;;;;-3.16;100.00;101620.78;5008228;28;20460;-71
2021/04/04 01:05:10;;;;;;;10.97;7.03;;;;;;;-2.87;100.00;101616.09;5011518;28;20954;-73
2021/04/04 01:07:37;;;;;;;8.73;6.00;;;;;;;-2.90;100.00;101613.44;5011618;28;20819;-73
2021/04/04 01:10:07;;;;;;;9.93;7.10;;;;;;;-3.02;100.00;101612.88;5010614;28;20575;-72
2021/04/04 01:12:40;;;;;;;11.43;6.90;;;;;;;-2.95;100.00;101609.78;5013875;28;20456;-70
2021/04/04 01:15:10;;;;;;;10.90;7.40;;;;;;;-3.27;100.00;101607.53;5008172;28;20480;-74
2021/04/04 01:17:37;;;;;;;9.60;7.03;;;;;;;-3.05;100.00;101605.94;5015250;28;20440;-73
2021/04/04 01:20:09;;;;;;;10.67;6.13;;;;;;;-2.80;100.00;101605.34;4997736;28;20526;-73
2021/04/04 01:23:03;;;;;;;10.57;6.40;;;;;;;-2.98;100.00;101607.09;5017181;28;20461;-73
2021/04/04 01:25:31;;;;;;;10.50;6.17;;;;;;;-3.26;100.00;101616.91;5009062;28;20508;-73
2021/04/04 01:28:02;;;;;;;8.57;6.10;;;;;;;-2.93;100.00;101606.50;5015118;28;20473;-73
2021/04/04 01:30:31;;;;;;;11.40;6.27;;;;;;;-3.02;100.00;101602.69;5024555;28;20534;-74
2021/04/04 01:32:59;;;;;;;7.83;5.73;;;;;;;-3.41;100.00;101613.69;5018668;28;20460;-72
2021/04/04 01:35:29;;;;;;;12.67;6.47;;;;;;;-3.59;100.00;101615.34;5014135;28;20528;-72
2021/04/04 01:37:59;;;;;;;14.67;6.43;;;;;;;-3.15;100.00;101606.31;5013172;28;20530;-74
2021/04/04 01:40:27;;;;;;;11.50;6.67;;;;;;;-2.97;100.00;101607.16;5018703;28;20447;-73
2021/04/04 01:42:54;;;;;;;7.87;5.80;;;;;;;-3.13;100.00;101613.25;5017328;28;20947;-73
2021/04/04 01:45:25;;;;;;;10.20;6.50;;;;;;;-3.13;100.00;101602.16;5016306;28;20987;-73
2021/04/04 01:47:52;;;;;;;10.93;6.67;;;;;;;-3.32;100.00;101610.69;5005789;28;20459;-73
2021/04/04 01:50:19;;;;;;;11.10;6.03;;;;;;;-3.08;100.00;101599.03;5019523;28;20476;-73
2021/04/04 01:52:47;;;;;;;8.67;5.63;;;;;;;-2.97;100.00;101599.50;5020054;28;20443;-72
2021/04/04 01:55:13;;;;;;;8.23;5.23;;;;;;;-3.13;100.00;101609.81;5016692;28;21089;-73
2021/04/04 01:57:41;;;;;;;9.23;5.93;;;;;;;-3.32;100.00;101613.22;5017096;28;20710;-73
2021/04/04 02:00:12;;;;;;;10.67;6.40;;;;;;;-3.31;100.00;101608.16;5017913;28;20473;-74
2021/04/04 02:02:39;;;;;;;10.87;6.40;;;;;;;-3.10;100.00;101599.75;5020036;28;21041;-72
2021/04/04 02:05:08;;;;;;;8.33;5.83;;;;;;;-3.43;100.00;101610.16;5009221;28;20494;-73
2021/04/04 02:07:34;;;;;;;10.13;6.57;;;;;;;-3.77;100.00;101612.81;5017755;28;20902;-73
2021/04/04 02:10:00;;;;;;;8.77;5.80;;;;;;;-3.59;100.00;101600.06;5015990;28;20463;-73
2021/04/04 02:12:28;;;;;;;10.30;5.93;;;;;;;-3.34;100.00;101594.41;5018316;28;20819;-74
2021/04/04 02:14:56;;;;;;;11.20;6.23;;;;;;;-3.82;100.00;101604.94;5018187;28;20461;-73
2021/04/04 02:17:22;;;;;;;9.43;6.33;;;;;;;-3.95;100.00;101605.16;5012936;28;20726;-72
2021/04/04 02:19:52;;;;;;;10.00;6.40;;;;;;;-3.73;100.00;101600.28;5012877;28;20463;-73
2021/04/04 02:22:19;;;;;;;10.77;5.67;;;;;;;-3.33;100.00;101591.94;5019005;28;20464;-73
2021/04/04 02:24:46;;;;;;;8.43;5.70;;;;;;;-3.16;100.00;101591.84;5020037;28;20465;-73
2021/04/04 02:27:12;;;;;;;9.67;5.70;;;;;;;-3.27;100.00;101593.91;5012419;28;20456;-74
2021/04/04 02:29:38;;;;;;;8.70;6.13;;;;;;;-3.18;100.00;101589.22;5016768;28;20532;-73
2021/04/04 02:32:08;;;;;;;6.93;5.40;;;;;;;-3.69;100.00;101599.63;5014105;28;20455;-73
2021/04/04 02:34:39;;;;;;;8.67;5.50;;;;;;;-3.73;100.00;101599.41;5011725;28;20447;-73
2021/04/04 02:37:10;;;;;;;8.57;5.87;;;;;;;-3.80;100.00;101598.22;4995774;28;20502;-74
2021/04/04 02:39:45;;;;;;;7.13;5.10;;;;;;;-3.40;100.00;101601.78;5012402;28;20988;-73
2021/04/04 02:42:13;;;;;;;7.60;5.67;;;;;;;-3.26;100.00;101593.94;5015233;28;20461;-72
2021/04/04 02:44:40;;;;;;;7.60;5.20;;;;;;;-3.25;100.00;101594.84;5014037;28;20700;-74
2021/04/04 02:47:10;;;;;;;7.33;5.00;;;;;;;-3.34;100.00;101590.19;5020812;28;20469;-71
2021/04/04 02:49:38;;;;;;;8.37;6.00;;;;;;;-3.73;100.00;101594.31;5019628;28;20502;-73
2021/04/04 02:52:10;;;;;;;7.60;4.87;;;;;;;-3.42;100.00;101584.72;5017938;28;20555;-72
2021/04/04 02:54:37;;;;;;;7.67;5.63;;;;;;;-3.31;100.00;101586.91;5023696;28;20517;-74
2021/04/04 02:57:06;;;;;;;10.33;5.77;;;;;;;-3.26;100.00;101583.75;5018056;28;20846;-73
2021/04/04 02:59:40;;;;;;;7.40;5.37;;;;;;;-3.67;100.00;101586.97;5014465;28;20459;-74
2021/04/04 03:02:09;;;;;;;8.40;5.30;;;;;;;-3.76;100.00;101579.75;5004763;28;20995;-73
2021/04/04 03:04:38;;;;;;;7.73;4.97;;;;;;;-3.52;100.00;101579.13;5015292;28;20446;-73
2021/04/04 03:07:06;;;;;;;6.93;4.83;;;;;;;-3.38;100.00;101577.22;4998468;28;20826;-73
2021/04/04 03:09:35;;;;;;;7.67;5.40;;;;;;;-3.51;100.00;101581.75;5017315;28;20478;-73
2021/04/04 03:12:02;;;;;;;7.70;5.63;;;;;;;-3.60;100.00;101578.78;4994983;28;20487;-74
2021/04/04 03:14:30;;;;;;;10.03;5.97;;;;;;;-3.59;100.00;101574.56;5009419;28;20452;-73
2021/04/04 03:16:58;;;;;;;7.33;5.53;;;;;;;-3.51;100.00;101566.47;5022113;28;20478;-71
2021/04/04 03:19:24;;;;;;;8.47;5.50;;;;;;;-3.82;100.00;101567.59;5015217;28;20564;-73
2021/04/04 03:21:54;;;;;;;11.03;6.00;;;;;;;-3.65;100.00;101570.06;5013047;28;20451;-73
2021/04/04 03:24:21;;;;;;;10.60;4.87;;;;;;;-3.63;100.00;101566.75;5012588;28;20797;-74
2021/04/04 03:26:49;;;;;;;9.10;5.67;;;;;;;-3.65;100.00;101565.81;5016025;28;20869;-73
2021/04/04 03:29:15;;;;;;;8.73;5.83;;;;;;;-3.90;100.00;101562.94;5020190;28;20475;-72
2021/04/04 03:31:42;;;;;;;8.93;6.47;;;;;;;-3.86;100.00;101570.78;5016610;28;20582;-71
2021/04/04 03:34:09;;;;;;;10.07;5.57;;;;;;;-3.68;100.00;101564.81;5014760;28;20475;-74
2021/04/04 03:36:36;;;;;;;8.27;5.80;;;;;;;-3.98;100.00;101567.66;5015753;28;20994;-73
2021/04/04 03:39:04;;;;;;;8.73;5.10;;;;;;;-4.08;100.00;101570.53;5015917;28;20498;-73
2021/04/04 03:41:31;;;;;;;9.87;5.73;;;;;;;-3.97;100.00;101564.31;5002822;28;20451;-73
2021/04/04 03:44:00;;;;;;;7.33;4.43;;;;;;;-3.73;100.00;101556.97;5017392;28;21034;-73
2021/04/04 03:46:30;;;;;;;10.83;6.13;;;;;;;-3.77;100.00;101564.38;4997201;28;20460;-73
2021/04/04 03:48:57;;;;;;;11.43;5.53;;;;;;;-3.96;100.00;101562.63;5014195;28;20563;-73
2021/04/04 03:51:24;;;;;;;7.30;4.77;;;;;;;-3.97;100.00;101564.31;5017641;28;20448;-73
2021/04/04 03:53:52;;;;;;;7.80;5.10;;;;;;;-4.36;100.00;101566.66;5012849;28;20538;-73
2021/04/04 03:56:22;;;;;;;8.27;5.17;;;;;;;-4.33;100.00;101556.59;5016797;28;20544;-73
2021/04/04 03:58:49;;;;;;;8.67;4.73;;;;;;;-4.00;100.00;101552.28;5015937;28;20562;-74
2021/04/04 04:01:19;;;;;;;6.97;4.70;;;;;;;-4.14;100.00;101558.38;5010978;28;20466;-73
2021/04/04 04:03:47;;;;;;;8.70;5.43;;;;;;;-4.15;100.00;101565.94;4991005;28;20522;-73
2021/04/04 04:06:13;;;;;;;5.90;4.77;;;;;;;-4.18;100.00;101553.97;4997871;28;20454;-74
2021/04/04 04:08:40;;;;;;;8.40;5.00;;;;;;;-4.30;100.00;101554.22;5014517;28;20475;-73
2021/04/04 04:11:08;;;;;;;7.83;4.97;;;;;;;-4.00;100.00;101554.81;5019626;28;20465;-73
2021/04/04 04:13:36;;;;;;;6.53;4.83;;;;;;;-4.01;100.00;101559.84;5013926;28;20444;-73
2021/04/04 04:16:03;;;;;;;6.40;4.70;;;;;;;-4.11;100.00;101548.34;5011256;28;20487;-73
2021/04/04 04:18:32;;;;;;;8.93;4.53;;;;;;;-3.96;100.00;101549.88;5008804;28;20909;-74
2021/04/04 04:20:58;;;;;;;7.07;5.10;;;;;;;-4.07;100.00;101549.38;5010640;28;20574;-73
2021/04/04 04:23:25;;;;;;;8.13;5.00;;;;;;;-4.20;100.00;101556.41;5007741;28;20534;-74
2021/04/04 04:25:53;;;;;;;7.03;4.23;;;;;;;-4.16;100.00;101552.34;5011516;28;20455;-73
2021/04/04 04:28:20;;;;;;;6.80;4.57;;;;;;;-4.07;100.00;101552.78;5014051;28;20884;-73
2021/04/04 04:30:46;;;;;;;6.37;4.13;;;;;;;-3.98;100.00;101544.72;5015685;28;20494;-73
2021/04/04 04:33:16;;;;;;;10.10;4.33;;;;;;;-4.10;100.00;101546.66;4990330;28;20870;-74
2021/04/04 04:35:44;;;;;;;5.43;3.90;;;;;;;-4.06;100.00;101539.25;5013708;28;20475;-73
2021/04/04 04:38:11;;;;;;;5.20;4.17;;;;;;;-4.20;100.00;101543.69;5011845;28;20463;-74
2021/04/04 04:40:38;;;;;;;7.00;4.20;;;;;;;-3.99;100.00;101532.78;4998091;28;20461;-73
2021/04/04 04:43:08;;;;;;;5.03;3.63;;;;;;;-3.85;100.00;101536.88;5015932;28;20975;-74
2021/04/04 04:45:36;;;;;;;6.70;4.13;;;;;;;-3.77;100.00;101527.00;5017520;28;20479;-73
2021/04/04 04:48:04;;;;;;;7.17;4.20;;;;;;;-3.85;100.00;101534.31;5014083;28;20831;-74
2021/04/04 04:50:30;;;;;;;6.33;3.90;;;;;;;-3.95;100.00;101531.25;5019355;28;20850;-73
2021/04/04 04:52:59;;;;;;;5.07;3.80;;;;;;;-3.92;100.00;101527.19;5018183;28;20457;-74
2021/04/04 04:55:26;;;;;;;3.67;3.37;;;;;;;-3.73;100.00;101528.94;5016996;28;21433;-73
2021/04/04 04:57:54;;;;;;;5.13;3.80;;;;;;;-3.84;100.00;101532.63;5019496;28;20443;-73
2021/04/04 05:00:22;;;;;;;6.30;4.13;;;;;;;-3.79;100.00;101525.22;5018251;28;20478;-73
2021/04/04 05:02:49;;;;;;;5.93;3.83;;;;;;;-3.89;100.00;101534.94;5008925;28;20954;-73
2021/04/04 05:05:16;;;;;;;8.23;4.17;;;;;;;-3.86;100.00;101536.78;4993179;28;20469;-74
2021/04/04 05:07:44;;;;;;;6.00;4.47;;;;;;;-3.97;100.00;101540.47;5019403;28;20448;-73
2021/04/04 05:10:13;;;;;;;9.00;4.40;;;;;;;-3.83;100.00;101542.03;5014246;28;20824;-73
2021/04/04 05:12:44;;;;;;;6.03;3.77;;;;;;;-3.86;100.00;101541.88;5018815;28;20943;-73
2021/04/04 05:15:11;;;;;;;5.30;3.73;;;;;;;-3.85;100.00;101544.50;5002679;28;20454;-73
2021/04/04 05:17:37;;;;;;;5.67;4.13;;;;;;;-3.68;100.00;101546.97;5018022;28;20801;-73
2021/04/04 05:20:06;;;;;;;5.93;4.27;;;;;;;-3.55;100.00;101549.28;5035927;28;20568;-73
2021/04/04 05:22:34;;;;;;;5.20;4.20;;;;;;;-3.71;100.00;101549.34;5016001;28;20451;-73
2021/04/04 05:25:00;;;;;;;7.33;4.33;;;;;;;-3.51;100.00;101546.06;5019785;28;20486;-73
2021/04/04 05:27:27;;;;;;;5.60;4.23;;;;;;;-3.48;100.00;101545.34;5021239;28;20451;-74
2021/04/04 05:29:57;;;;;;;6.80;4.30;;;;;;;-3.42;100.00;101546.47;4995086;28;20479;-73
2021/04/04 05:32:23;;;;;;;5.43;3.73;;;;;;;-3.37;100.00;101544.16;5020211;28;20549;-73
2021/04/04 05:34:49;;;;;;;6.27;3.63;;;;;;;-3.50;100.00;101552.94;5016674;28;20549;-76
2021/04/04 05:37:15;;;;;;;4.97;3.63;;;;;;;-3.36;100.00;101539.91;5018891;28;20509;-72
2021/04/04 05:39:41;;;;;;;5.83;3.80;;;;;;;-3.17;100.00;101544.16;5019985;28;20486;-72
2021/04/04 05:42:09;;;;;;;6.17;3.80;;;;;;;-3.19;100.00;101548.34;5001895;28;20235;-73
2021/04/04 05:44:40;;;;;;;7.90;3.60;;;;;;;-2.96;100.00;101549.34;5015430;28;20550;-72
2021/04/04 05:47:13;;;;;;;7.17;4.30;;;;;;;-2.92;100.00;101547.00;5015088;28;20943;-73
2021/04/04 05:49:49;;;;;;;6.17;3.73;;;;;;;-2.79;100.00;101552.63;5019242;28;20561;-74
2021/04/04 05:52:28;;;;;;;5.30;3.70;;;;;;;-2.70;100.00;101556.44;5014202;28;20445;-73
2021/04/04 05:55:05;;;;;;;6.07;3.53;;;;;;;-2.60;100.00;101551.72;5020119;28;20556;-72
2021/04/04 05:57:35;;;;;;;28.30;13.10;;;;;;;-2.52;100.00;101550.38;5013626;28;21080;-72
2021/04/04 06:00:06;;;;;;;33.97;16.60;;;;;;;-2.39;100.00;101547.53;5018200;28;20562;-73
2021/04/04 06:03:13;;;;;;;80.87;37.00;;;;;;;-2.32;100.00;101553.78;5011102;28;20488;-73
2021/04/04 06:06:17;;;;;;;23.13;11.30;;;;;;;-2.12;100.00;101555.44;5016770;28;20547;-73
2021/04/04 06:09:09;;;;;;;13.70;5.90;;;;;;;-2.16;100.00;101555.28;4992738;28;20602;-73
2021/04/04 06:12:00;;;;;;;7.70;4.97;;;;;;;-2.26;100.00;101548.03;5011438;28;20496;-74
2021/04/04 06:14:30;;;;;;;7.97;4.80;;;;;;;-2.23;100.00;101551.59;5014581;28;20554;-73
2021/04/04 06:17:06;;;;;;;6.63;4.40;;;;;;;-2.05;100.00;101548.88;5014327;28;20478;-73
2021/04/04 06:19:40;;;;;;;8.53;4.90;;;;;;;-1.93;100.00;101545.97;5011545;28;20508;-72
2021/04/04 06:22:11;;;;;;;6.77;4.50;;;;;;;-1.92;100.00;101547.69;5012215;28;20459;-72
2021/04/04 06:24:44;;;;;;;7.33;4.20;;;;;;;-1.87;100.00;101555.56;5008071;28;20465;-72
2021/04/04 06:27:16;;;;;;;7.60;4.07;;;;;;;-1.82;100.00;101548.94;5009538;28;20487;-72
2021/04/04 06:30:03;;;;;;;9.40;4.53;;;;;;;-1.67;100.00;101543.53;5010945;28;20516;-72
2021/04/04 06:32:37;;;;;;;7.13;4.40;;;;;;;-1.62;100.00;101544.59;5015276;28;20523;-72
2021/04/04 06:35:07;;;;;;;6.23;4.43;;;;;;;-1.39;100.00;101545.44;5006865;28;24017;-72
2021/04/04 06:37:44;;;;;;;9.43;4.97;;;;;;;-1.34;100.00;101544.81;5009373;28;20906;-72
2021/04/04 06:40:12;;;;;;;9.73;5.20;;;;;;;-1.26;100.00;101545.09;5028186;28;20484;-72
2021/04/04 06:43:00;;;;;;;7.90;4.70;;;;;;;-1.16;99.02;101548.88;5007750;28;20472;-72
2021/04/04 06:45:32;;;;;;;7.70;4.70;;;;;;;-1.09;97.28;101547.41;5011977;28;20517;-72
2021/04/04 06:48:12;;;;;;;7.40;4.90;;;;;;;-0.98;95.38;101541.84;5021993;28;20481;-72
2021/04/04 06:50:44;;;;;;;7.47;4.80;;;;;;;-0.90;92.44;101544.66;5011267;28;20206;-72
2021/04/04 06:53:22;;;;;;;6.83;4.00;;;;;;;-0.80;91.69;101545.88;5008082;28;20459;-72
2021/04/04 06:55:56;;;;;;;7.50;4.23;;;;;;;-0.64;92.25;101537.03;5007926;28;20560;-72
2021/04/04 06:58:46;;;;;;;10.33;5.03;;;;;;;-0.49;93.26;101531.53;5008814;28;20555;-72
2021/04/04 07:01:27;;;;;;;7.90;4.27;;;;;;;-0.42;90.26;101539.50;5008528;28;20195;-72
2021/04/04 07:03:58;;;;;;;6.93;4.53;;;;;;;-0.25;88.49;101552.00;5012784;28;20204;-72
2021/04/04 07:06:59;;;;;;;7.03;3.03;;;;;;;-0.11;83.75;101547.31;5010680;28;20202;-72
2021/04/04 07:09:44;;;;;;;5.13;3.10;;;;;;;-0.03;84.40;101545.88;5008715;28;20278;-72
2021/04/04 07:12:22;;;;;;;4.67;3.47;;;;;;;0.09;83.25;101543.72;5005541;28;20192;-72
2021/04/04 07:15:06;;;;;;;7.43;3.10;;;;;;;0.24;81.79;101552.69;5007820;28;20240;-72
2021/04/04 07:17:54;;;;;;;10.80;4.60;;;;;;;0.40;82.90;101546.34;5007290;28;20747;-72
2021/04/04 07:20:33;;;;;;;11.83;4.63;;;;;;;0.53;81.57;101546.75;5008813;28;20225;-72
2021/04/04 07:23:33;;;;;;;4.17;2.67;;;;;;;0.70;79.19;101546.38;5006016;28;20666;-72
2021/04/04 07:26:04;;;;;;;4.17;2.90;;;;;;;0.94;80.77;101538.50;5010791;28;20664;-72
2021/04/04 07:28:57;;;;;;;5.63;2.77;;;;;;;1.08;76.96;101554.31;5005469;28;20217;-72
2021/04/04 07:31:30;;;;;;;3.37;2.10;;;;;;;1.21;77.42;101546.09;5006604;28;20579;-72
2021/04/04 07:34:05;;;;;;;2.63;1.70;;;;;;;1.37;74.94;101556.78;5005479;28;20246;-72
2021/04/04 07:36:41;;;;;;;8.23;3.80;;;;;;;1.55;74.86;101549.56;5007422;28;20222;-72
2021/04/04 07:39:13;;;;;;;6.57;3.20;;;;;;;1.71;77.01;101550.81;5004452;28;20302;-72
2021/04/04 07:41:48;;;;;;;6.07;2.57;;;;;;;1.81;74.38;101559.63;5008265;28;20197;-72
2021/04/04 07:44:22;;;;;;;1.87;1.43;;;;;;;2.06;71.69;101569.69;5001549;28;20212;-72
2021/04/04 07:46:54;;;;;;;4.13;2.23;;;;;;;2.29;72.75;101553.91;4991613;28;20231;-72
2021/04/04 07:49:33;;;;;;;1.40;1.10;;;;;;;2.41;70.70;101566.16;4988529;28;20248;-72
2021/04/04 07:52:05;;;;;;;1.63;1.20;;;;;;;2.64;66.22;101570.13;5008668;28;20196;-72
2021/04/04 07:54:39;;;;;;;2.10;1.33;;;;;;;2.77;64.99;101566.09;5004685;28;20673;-72
2021/04/04 07:57:12;;;;;;;4.37;3.00;;;;;;;2.91;65.14;101573.25;5003743;28;20223;-72
2021/04/04 07:59:42;;;;;;;1.40;1.30;;;;;;;2.91;65.23;101563.81;5008675;28;20220;-72
2021/04/04 08:02:16;;;;;;;2.53;1.70;;;;;;;3.08;64.72;101563.25;4996202;28;20209;-72
2021/04/04 08:04:48;;;;;;;12.20;6.20;;;;;;;3.23;62.24;101571.31;5009014;28;20633;-73
2021/04/04 08:07:20;;;;;;;4.70;2.30;;;;;;;3.41;61.97;101571.66;5003458;28;21104;-72
2021/04/04 08:09:51;;;;;;;1.37;1.00;;;;;;;3.49;61.09;101565.78;5008698;28;20220;-72
2021/04/04 08:12:39;;;;;;;2.77;1.30;;;;;;;3.56;61.70;101557.31;5004973;28;20605;-72
2021/04/04 08:15:07;;;;;;;2.50;2.17;;;;;;;3.85;60.47;101562.06;5003761;28;20287;-72
2021/04/04 08:17:34;;;;;;;3.07;2.50;;;;;;;3.90;60.64;101561.31;4986384;28;20311;-71
2021/04/04 08:20:03;;;;;;;4.37;1.73;;;;;;;3.92;60.26;101558.75;5006480;28;20222;-72
2021/04/04 08:22:33;;;;;;;8.17;4.77;;;;;;;4.03;60.11;101559.81;5011938;28;20202;-72
2021/04/04 08:25:05;;;;;;;4.27;3.20;;;;;;;4.18;60.10;101556.59;5001262;28;20348;-72
2021/04/04 08:27:35;;;;;;;10.80;5.30;;;;;;;4.20;59.17;101565.22;5002992;28;20205;-72
2021/04/04 08:30:10;;;;;;;2.13;1.30;;;;;;;4.22;58.08;101565.25;5002936;28;20235;-72
2021/04/04 08:32:44;;;;;;;2.00;1.00;;;;;;;4.26;56.53;101564.47;5007487;28;20291;-72
2021/04/04 08:35:14;;;;;;;2.87;0.90;;;;;;;4.31;57.90;101557.63;5004537;28;20672;-72
2021/04/04 08:37:45;;;;;;;2.97;2.20;;;;;;;4.62;58.55;101558.06;5009171;28;20220;-72
2021/04/04 08:40:14;;;;;;;1.60;1.33;;;;;;;4.64;57.39;101561.53;5002199;28;20324;-72
2021/04/04 08:42:42;;;;;;;1.43;1.10;;;;;;;4.70;57.35;101551.28;5008113;28;20287;-72
2021/04/04 08:45:13;;;;;;;1.00;0.87;;;;;;;4.85;56.69;101559.22;5005567;28;20592;-72
2021/04/04 08:47:43;;;;;;;1.30;0.90;;;;;;;4.89;57.64;101552.38;5009795;28;20205;-72
2021/04/04 08:50:13;;;;;;;4.00;0.80;;;;;;;4.88;57.73;101553.22;5008025;28;20207;-72
2021/04/04 08:52:47;;;;;;;1.90;0.93;;;;;;;4.93;55.25;101555.00;5004218;28;20272;-72
2021/04/04 08:55:19;;;;;;;1.57;1.00;;;;;;;5.15;56.30;101550.09;5014905;28;20203;-72
2021/04/04 08:57:48;;;;;;;1.43;0.93;;;;;;;5.19;56.30;101546.69;5004785;28;20333;-72
2021/04/04 09:00:15;;;;;;;1.23;1.10;;;;;;;5.21;57.24;101536.38;5010270;28;20270;-72
2021/04/04 09:02:45;;;;;;;1.40;1.10;;;;;;;5.38;56.62;101532.25;5004501;28;20228;-72
2021/04/04 09:05:12;;;;;;;1.33;0.90;;;;;;;5.54;54.98;101534.97;5006163;28;20856;-72
2021/04/04 09:07:43;;;;;;;5.17;2.40;;;;;;;5.56;55.33;101530.66;5008153;28;20276;-72
2021/04/04 09:10:14;;;;;;;2.67;1.43;;;;;;;5.54;54.19;101525.50;5000850;28;20212;-72
2021/04/04 09:12:42;;;;;;;0.80;0.80;;;;;;;5.62;55.17;101521.25;5002595;28;20201;-72
2021/04/04 09:15:10;;;;;;;2.60;1.23;;;;;;;5.75;52.26;101524.81;4999628;28;20228;-72
2021/04/04 09:17:36;;;;;;;3.60;1.50;;;;;;;5.90;52.79;101525.78;5007734;28;20227;-72
2021/04/04 09:20:06;;;;;;;0.93;0.73;;;;;;;6.09;51.41;101538.03;5000521;28;20299;-72
2021/04/04 09:22:33;;;;;;;1.47;0.70;;;;;;;6.09;50.33;101525.09;5006475;28;20238;-72
2021/04/04 09:25:05;;;;;;;1.47;1.00;;;;;;;6.20;49.68;101523.41;4987552;28;20194;-72
2021/04/04 09:27:36;;;;;;;1.10;1.00;;;;;;;6.28;49.36;101523.50;5005583;28;20549;-72
2021/04/04 09:30:05;;;;;;;2.03;0.87;;;;;;;6.28;50.39;101523.50;5007307;28;20644;-72
2021/04/04 09:32:35;;;;;;;1.73;1.07;;;;;;;6.24;50.51;101520.03;5001853;28;20420;-72
2021/04/04 09:35:02;;;;;;;0.77;0.73;;;;;;;6.18;50.81;101519.97;5004388;28;20203;-72
2021/04/04 09:37:29;;;;;;;0.80;0.80;;;;;;;6.25;50.09;101519.13;5000709;28;20700;-72
2021/04/04 09:39:57;;;;;;;1.10;1.00;;;;;;;6.21;51.73;101507.03;5004665;28;20271;-72
2021/04/04 09:42:28;;;;;;;1.00;0.83;;;;;;;6.38;50.43;101507.13;5001044;28;20204;-73
2021/04/04 09:45:12;;;;;;;1.10;0.90;;;;;;;6.56;51.59;101493.41;5006854;28;20204;-72
2021/04/04 09:47:38;;;;;;;1.50;1.00;;;;;;;6.64;47.96;101501.19;5006321;28;20208;-72
2021/04/04 09:50:17;;;;;;;1.23;1.00;;;;;;;6.68;49.16;101500.34;5006132;28;20219;-72
2021/04/04 09:52:43;;;;;;;2.73;1.00;;;;;;;6.79;50.60;101490.03;5001468;28;20486;-72
2021/04/04 09:55:14;;;;;;;1.43;0.90;;;;;;;7.05;50.37;101490.09;5001975;28;20621;-72
2021/04/04 09:57:41;;;;;;;3.07;1.40;;;;;;;7.07;47.55;101496.16;5006276;28;20234;-72
2021/04/04 10:00:24;;;;;;;1.80;1.03;;;;;;;7.13;47.58;101488.38;4998910;28;20298;-72
2021/04/04 10:02:51;;;;;;;1.47;1.03;;;;;;;7.05;47.74;101492.69;4998631;28;20196;-72
2021/04/04 10:05:32;;;;;;;1.53;1.20;;;;;;;7.09;49.05;101480.59;4984965;28;20401;-72
2021/04/04 10:08:13;;;;;;;1.87;1.07;;;;;;;7.12;48.15;101480.59;5006280;28;20196;-72
2021/04/04 10:10:40;;;;;;;2.30;1.20;;;;;;;7.27;48.96;101482.38;4984057;28;20209;-72
2021/04/04 10:13:07;;;;;;;1.73;1.17;;;;;;;7.53;49.00;101477.19;5008017;28;20193;-72
2021/04/04 10:15:45;;;;;;;1.50;1.27;;;;;;;7.45;49.04;101468.53;5000821;28;20216;-72
2021/04/04 10:18:12;;;;;;;2.80;1.50;;;;;;;7.44;46.84;101472.88;5005158;28;20196;-72
2021/04/04 10:20:40;;;;;;;3.33;1.30;;;;;;;7.55;44.77;101483.25;5005696;28;20201;-72
2021/04/04 10:23:07;;;;;;;2.17;1.60;;;;;;;7.62;46.48;101473.75;4998738;28;20236;-72
2021/04/04 10:25:34;;;;;;;2.43;1.40;;;;;;;7.51;47.53;101465.94;5003227;28;20197;-72
2021/04/04 10:28:04;;;;;;;1.70;1.60;;;;;;;7.56;49.09;101464.19;5001924;28;20201;-73
2021/04/04 10:30:31;;;;;;;2.27;1.50;;;;;;;7.62;47.74;101464.22;5005205;28;20197;-72
2021/04/04 10:33:20;;;;;;;2.20;1.50;;;;;;;7.67;45.90;101461.59;5004544;28;20193;-72
2021/04/04 10:35:46;;;;;;;1.63;1.37;;;;;;;7.66;45.47;101457.28;5001105;28;20262;-72
2021/04/04 10:38:14;;;;;;;2.67;1.43;;;;;;;7.59;47.69;101446.03;4988224;28;20563;-73
2021/04/04 10:40:43;;;;;;;2.23;1.67;;;;;;;7.82;48.55;101438.22;5002916;28;20223;-72
2021/04/04 10:43:09;;;;;;;3.20;1.97;;;;;;;7.81;47.20;101427.84;5006385;28;20672;-72
2021/04/04 10:45:36;;;;;;;2.70;1.50;;;;;;;7.83;46.91;101433.88;5006441;28;20212;-72
2021/04/04 10:48:07;;;;;;;2.20;1.60;;;;;;;7.83;47.58;101426.09;4985501;28;20633;-72
2021/04/04 10:50:33;;;;;;;4.37;1.50;;;;;;;7.87;47.23;101428.69;4988221;28;20201;-72
2021/04/04 10:53:00;;;;;;;3.07;1.50;;;;;;;8.07;47.80;101418.28;4999463;28;20224;-72
2021/04/04 10:55:26;;;;;;;2.00;1.27;;;;;;;8.12;44.42;101426.88;4999317;28;20193;-72
2021/04/04 10:57:53;;;;;;;3.63;1.43;;;;;;;8.30;46.66;101425.97;4999753;28;20278;-72
2021/04/04 11:00:21;;;;;;;2.10;1.77;;;;;;;8.41;46.63;101415.53;5004351;28;20299;-72
2021/04/04 11:02:49;;;;;;;2.80;1.67;;;;;;;8.48;45.18;101421.59;5000213;28;20198;-72
2021/04/04 11:05:17;;;;;;;1.63;1.40;;;;;;;8.36;42.87;101425.09;5003785;28;20212;-72
2021/04/04 11:07:43;;;;;;;2.03;1.50;;;;;;;8.23;42.21;101413.88;5002984;28;20346;-72
2021/04/04 11:10:11;;;;;;;3.43;1.50;;;;;;;8.23;41.65;101408.69;5008093;28;20227;-72
2021/04/04 11:12:38;;;;;;;4.60;1.50;;;;;;;8.33;42.19;101406.91;5004367;28;20202;-72
2021/04/04 11:15:08;;;;;;;2.63;1.40;;;;;;;8.49;42.89;101392.97;5003299;28;20204;-72
2021/04/04 11:17:36;;;;;;;3.20;1.70;;;;;;;8.65;44.81;101390.31;5004059;28;20212;-72
2021/04/04 11:20:06;;;;;;;3.47;1.50;;;;;;;8.61;44.95;101378.22;5002947;28;20278;-72
2021/04/04 11:22:33;;;;;;;3.13;1.70;;;;;;;8.66;44.73;101379.03;5004205;28;20425;-72
2021/04/04 11:25:02;;;;;;;2.23;1.40;;;;;;;8.65;44.30;101379.91;5003253;28;20200;-72
2021/04/04 11:27:40;;;;;;;3.67;1.43;;;;;;;8.63;43.80;101381.66;5004870;28;20200;-72
2021/04/04 11:30:08;;;;;;;3.00;1.47;;;;;;;8.70;44.86;101372.94;5002408;28;20688;-72
2021/04/04 11:32:34;;;;;;;1.97;1.43;;;;;;;8.78;43.19;101381.56;5009355;28;20235;-72
2021/04/04 11:35:02;;;;;;;1.60;1.10;;;;;;;8.75;41.37;101384.19;5005940;28;20201;-72
2021/04/04 11:37:40;;;;;;;3.70;1.30;;;;;;;8.87;41.14;101380.63;5002335;28;20632;-72